createdAt,value
2023-01-09T00:03:37.841Z,15.57
2023-01-09T00:08:29.769Z,16.70
2023-01-09T00:13:21.815Z,17.77
2023-01-09T00:18:13.772Z,17.17
2023-01-09T00:23:05.911Z,16.23
2023-01-09T00:27:57.879Z,16.50
2023-01-09T00:32:49.894Z,17.40
2023-01-09T00:37:41.970Z,16.13
2023-01-09T00:42:36.637Z,19.13
2023-01-09T00:47:34.061Z,17.67
2023-01-09T00:52:26.097Z,17.23
2023-01-09T00:57:18.223Z,17.57
2023-01-09T01:02:10.529Z,20.13
2023-01-09T01:07:21.230Z,19.53
2023-01-09T01:12:13.171Z,17.87
2023-01-09T01:17:06.273Z,17.53
2023-01-09T01:22:07.248Z,21.10
2023-01-09T01:26:59.287Z,20.87
2023-01-09T01:31:52.570Z,19.07
2023-01-09T01:36:44.645Z,20.73
2023-01-09T01:41:38.201Z,21.40
2023-01-09T01:46:31.414Z,20.00
2023-01-09T01:51:26.030Z,18.53
2023-01-09T01:56:26.577Z,19.77
2023-01-09T02:01:19.857Z,17.07
2023-01-09T02:12:42.839Z,17.30
2023-01-09T02:17:59.113Z,15.97
2023-01-09T02:23:00.117Z,15.40
2023-01-09T02:28:21.300Z,15.07
2023-01-09T02:33:13.307Z,20.80
2023-01-09T02:38:52.554Z,17.63
2023-01-09T02:43:44.598Z,17.03
2023-01-09T02:48:36.583Z,17.87
2023-01-09T02:53:55.459Z,17.27
2023-01-09T02:59:14.237Z,18.97
2023-01-09T03:04:35.685Z,19.10
2023-01-09T03:09:31.818Z,19.97
2023-01-09T03:14:26.143Z,20.70
2023-01-09T03:19:21.952Z,20.63
2023-01-09T03:24:14.186Z,24.97
2023-01-09T03:29:06.186Z,25.10
2023-01-09T03:33:58.268Z,26.83
2023-01-09T03:38:51.444Z,20.33
2023-01-09T03:43:43.545Z,23.13
2023-01-09T03:48:35.766Z,29.13
2023-01-09T03:53:28.880Z,27.77
2023-01-09T03:58:22.036Z,28.67
2023-01-09T04:03:14.229Z,31.87
2023-01-09T04:08:06.220Z,31.03
2023-01-09T04:12:58.208Z,32.13
2023-01-09T04:17:50.330Z,25.97
2023-01-09T04:22:42.464Z,29.17
2023-01-09T04:27:34.597Z,26.87
2023-01-09T04:32:27.736Z,27.67
2023-01-09T04:37:19.972Z,26.50
2023-01-09T04:42:12.186Z,28.90
2023-01-09T04:47:04.431Z,28.50
2023-01-09T04:51:56.582Z,30.70
2023-01-09T04:56:48.848Z,32.43
2023-01-09T05:01:41.217Z,28.17
2023-01-09T05:06:34.364Z,26.30
2023-01-09T05:11:27.016Z,29.20
2023-01-09T05:16:19.624Z,28.77
2023-01-09T05:21:11.914Z,26.37
2023-01-09T05:26:06.700Z,26.37
2023-01-09T05:30:58.800Z,24.07
2023-01-09T05:35:51.045Z,23.90
2023-01-09T05:40:42.959Z,22.13
2023-01-09T05:45:35.358Z,21.50
2023-01-09T05:50:27.371Z,21.00
2023-01-09T05:55:19.649Z,22.50
2023-01-09T06:00:12.379Z,20.30
2023-01-09T06:05:04.758Z,20.70
2023-01-09T06:09:56.746Z,20.67
2023-01-09T06:14:48.909Z,21.40
2023-01-09T06:19:40.837Z,20.20
2023-01-09T06:24:32.824Z,18.33
2023-01-09T06:29:24.766Z,17.17
2023-01-09T06:34:17.938Z,19.80
2023-01-09T06:39:10.012Z,18.13
2023-01-09T06:44:01.965Z,17.80
2023-01-09T06:48:53.906Z,18.63
2023-01-09T06:53:45.890Z,16.37
2023-01-09T06:58:37.808Z,15.00
2023-01-09T07:03:30.008Z,18.40
2023-01-09T07:08:23.542Z,17.13
2023-01-09T07:13:15.583Z,18.57
2023-01-09T07:18:07.527Z,17.17
2023-01-09T07:22:59.553Z,16.97
2023-01-09T07:27:51.530Z,18.07
2023-01-09T07:32:43.781Z,16.67
2023-01-09T07:37:35.940Z,16.87
2023-01-09T07:42:28.325Z,17.07
2023-01-09T07:47:20.343Z,16.70
2023-01-09T07:52:12.449Z,18.73
2023-01-09T07:57:04.471Z,16.23
2023-01-09T08:01:57.038Z,17.10
2023-01-09T08:06:49.289Z,17.77
2023-01-09T08:11:42.156Z,16.90
2023-01-09T08:16:34.208Z,16.07
2023-01-09T08:21:26.372Z,16.10
2023-01-09T08:26:19.555Z,17.00
2023-01-09T08:31:11.645Z,18.03
2023-01-09T08:36:03.802Z,13.93
2023-01-09T08:40:55.832Z,14.07
2023-01-09T08:46:19.826Z,13.80
2023-01-09T08:51:11.987Z,15.87
2023-01-09T08:56:04.255Z,13.10
2023-01-09T09:00:56.769Z,16.53
2023-01-09T09:05:49.741Z,11.23
2023-01-09T09:10:41.882Z,12.57
2023-01-09T09:15:34.520Z,11.10
2023-01-09T09:20:29.585Z,11.23
2023-01-09T09:25:21.835Z,14.50
2023-01-09T09:30:15.700Z,10.97
2023-01-09T09:35:08.510Z,10.23
2023-01-09T09:40:09.663Z,10.60
2023-01-09T09:45:12.807Z,8.50
2023-01-09T09:50:10.607Z,8.10
2023-01-09T09:55:17.563Z,3.43
2023-01-09T10:00:19.208Z,2.17
2023-01-09T10:05:30.961Z,2.03
2023-01-09T10:10:45.983Z,2.10
2023-01-09T10:15:50.552Z,1.67
2023-01-09T10:21:04.386Z,4.40
2023-01-09T10:26:05.687Z,2.57
2023-01-09T10:31:03.812Z,4.13
2023-01-09T10:36:04.510Z,2.00
2023-01-09T10:41:18.526Z,2.07
2023-01-09T10:46:43.243Z,1.47
2023-01-09T10:51:50.942Z,1.43
2023-01-09T10:56:51.042Z,1.17
2023-01-09T11:01:43.469Z,3.03
2023-01-09T11:06:47.959Z,1.43
2023-01-09T11:11:41.275Z,1.93
2023-01-09T11:16:33.195Z,2.10
2023-01-09T11:21:33.033Z,2.10
2023-01-09T11:26:27.952Z,0.93
2023-01-09T11:31:24.563Z,1.13
2023-01-09T11:36:16.627Z,1.47
2023-01-09T11:41:15.518Z,0.50
2023-01-09T11:46:11.501Z,0.63
2023-01-09T11:51:18.608Z,2.80
2023-01-09T11:56:12.967Z,1.50
2023-01-09T12:01:04.803Z,1.83
2023-01-09T12:06:16.962Z,0.50
2023-01-09T12:11:18.061Z,0.80
2023-01-09T12:16:28.971Z,0.80
2023-01-09T12:21:26.975Z,0.73
2023-01-09T12:26:48.266Z,1.87
2023-01-09T12:31:55.964Z,2.10
2023-01-09T12:37:13.470Z,1.10
2023-01-09T12:42:05.453Z,1.20
2023-01-09T12:52:32.114Z,0.93
2023-01-09T12:57:44.775Z,0.57
2023-01-09T13:02:44.943Z,0.53
2023-01-09T13:07:47.243Z,1.00
2023-01-09T13:12:43.383Z,2.43
2023-01-09T13:17:43.572Z,0.77
2023-01-09T13:22:35.628Z,1.37
2023-01-09T13:27:34.824Z,1.27
2023-01-09T13:32:29.787Z,1.07
2023-01-09T13:37:31.010Z,0.77
2023-01-09T13:42:36.529Z,0.53
2023-01-09T13:47:29.352Z,0.47
2023-01-09T13:52:40.340Z,1.10
2023-01-09T13:57:37.131Z,1.33
2023-01-09T14:02:41.792Z,2.07
2023-01-09T14:07:49.203Z,2.00
2023-01-09T14:12:43.568Z,1.97
2023-01-09T14:17:38.366Z,0.60
2023-01-09T14:22:42.433Z,3.00
2023-01-09T14:27:54.541Z,1.53
2023-01-09T14:33:04.773Z,3.37
2023-01-09T14:38:09.899Z,0.87
2023-01-09T14:43:13.068Z,0.40
2023-01-09T14:48:07.347Z,0.47
2023-01-09T14:53:18.542Z,1.00
2023-01-09T14:58:34.040Z,3.83
2023-01-09T15:03:29.592Z,1.30
2023-01-09T15:08:25.983Z,0.80
2023-01-09T15:13:35.144Z,0.50
2023-01-09T15:18:31.964Z,1.33
2023-01-09T15:23:27.971Z,0.40
2023-01-09T15:28:34.644Z,1.43
2023-01-09T15:33:27.102Z,0.60
2023-01-09T15:38:24.302Z,1.70
2023-01-09T15:43:16.387Z,2.77
2023-01-09T15:48:23.826Z,0.80
2023-01-09T15:53:19.294Z,1.33
2023-01-09T15:58:28.284Z,1.53
2023-01-09T16:03:23.152Z,1.73
2023-01-09T16:08:29.222Z,1.67
2023-01-09T16:13:24.266Z,1.17
2023-01-09T16:18:16.171Z,1.93
2023-01-09T16:23:32.150Z,1.10
2023-01-09T16:28:30.638Z,1.73
2023-01-09T16:33:28.162Z,10.57
2023-01-09T16:38:21.355Z,2.47
2023-01-09T16:43:16.336Z,5.33
2023-01-09T16:48:13.075Z,11.83
2023-01-09T16:53:24.047Z,8.30
2023-01-09T16:58:24.382Z,3.10
2023-01-09T17:03:17.761Z,3.00
2023-01-09T17:08:24.832Z,9.67
2023-01-09T17:13:16.759Z,3.40
2023-01-09T17:18:20.108Z,4.23
2023-01-09T17:23:13.372Z,8.10
2023-01-09T17:28:24.553Z,7.93
2023-01-09T17:33:18.062Z,5.73
2023-01-09T17:38:15.526Z,8.63
2023-01-09T17:43:07.513Z,6.33
2023-01-09T17:47:59.517Z,4.00
2023-01-09T17:52:51.499Z,7.30
2023-01-09T17:57:43.895Z,4.30
2023-01-09T18:02:36.032Z,4.20
2023-01-09T18:07:28.162Z,8.63
2023-01-09T18:12:20.162Z,4.50
2023-01-09T18:17:13.267Z,8.07
2023-01-09T18:22:05.232Z,7.27
2023-01-09T18:26:57.210Z,4.20
2023-01-09T18:31:49.350Z,7.60
2023-01-09T18:36:41.487Z,6.17
2023-01-09T18:41:33.467Z,8.67
2023-01-09T18:46:26.431Z,11.87
2023-01-09T18:51:18.467Z,8.37
2023-01-09T18:56:10.572Z,7.37
2023-01-09T19:01:02.880Z,8.77
2023-01-09T19:05:59.889Z,6.20
2023-01-09T19:10:53.435Z,4.37
2023-01-09T19:15:45.510Z,4.60
2023-01-09T19:20:40.608Z,2.73
2023-01-09T19:25:32.733Z,2.67
2023-01-09T19:30:24.679Z,2.00
2023-01-09T19:35:17.639Z,2.07
2023-01-09T19:40:10.989Z,2.87
2023-01-09T19:45:04.665Z,2.83
2023-01-09T19:49:56.701Z,2.60
2023-01-09T19:54:48.628Z,2.57
2023-01-09T19:59:40.629Z,4.43
2023-01-09T20:04:32.703Z,1.73
2023-01-09T20:09:27.443Z,1.90
2023-01-09T20:14:21.105Z,1.70
2023-01-09T20:19:13.250Z,2.07
2023-01-09T20:24:06.929Z,1.90
2023-01-09T20:29:00.671Z,3.17
2023-01-09T20:33:52.869Z,1.97
2023-01-09T20:38:44.924Z,3.73
2023-01-09T20:43:37.826Z,1.30
2023-01-09T20:48:30.099Z,2.40
2023-01-09T20:53:22.074Z,3.27
2023-01-09T20:58:14.081Z,1.97
2023-01-09T21:03:05.985Z,3.50
2023-01-09T21:07:58.003Z,3.43
2023-01-09T21:12:50.344Z,3.50
2023-01-09T21:17:43.299Z,3.07
2023-01-09T21:22:36.270Z,3.93
2023-01-09T21:27:35.794Z,3.57
2023-01-09T21:32:29.229Z,5.07
2023-01-09T21:37:21.219Z,5.20
2023-01-09T21:42:31.702Z,3.60
2023-01-09T21:47:24.054Z,3.67
2023-01-09T21:52:18.249Z,1.33
2023-01-09T21:57:10.797Z,0.83
2023-01-09T22:02:02.842Z,1.37
2023-01-09T22:06:55.655Z,2.63
2023-01-09T22:11:47.611Z,1.33
2023-01-09T22:16:39.638Z,1.10
2023-01-09T22:21:31.677Z,0.77
2023-01-09T22:26:23.738Z,1.23
2023-01-09T22:31:18.293Z,2.07
2023-01-09T22:36:11.920Z,1.07
2023-01-09T22:41:05.087Z,2.37
2023-01-09T22:46:05.750Z,0.90
2023-01-09T22:51:06.856Z,3.17
2023-01-09T22:56:00.698Z,0.90
2023-01-09T23:00:53.195Z,2.13
2023-01-09T23:05:45.527Z,1.60
2023-01-09T23:10:37.812Z,2.40
2023-01-09T23:15:31.607Z,2.03
2023-01-09T23:20:23.788Z,2.30
2023-01-09T23:25:15.982Z,2.83
2023-01-09T23:30:10.548Z,0.97
2023-01-09T23:35:02.662Z,1.17
2023-01-09T23:39:54.613Z,1.37
2023-01-09T23:44:46.699Z,5.47
2023-01-09T23:49:38.865Z,1.47
2023-01-09T23:54:30.849Z,2.20
2023-01-09T23:59:23.341Z,0.77
